Terminal Aerodrome Forecast
Issued by NWS

Home | Current Version | Previous Version | Text Only | Print | Product List | Glossary On
Versions: 1 2 3 4 5 6 7 8 9 10 11 12 13 14 15 16 17 18 19 20 21 22 23 24 25 26 27 28 29
000
FTPQ31 PGUM 271720
TAFGUM
TAF

TAF
PGSN 271720Z 2718/2818 06012G22KT P6SM VCSH SCT016 BKN050 BKN120
      TEMPO 2718/2722 5SM SHRA BKN016 OVC040
     FM280100 06016G26KT P6SM VCSH FEW018 SCT050 BKN120
     FM281000 07014KT P6SM VCSH FEW020 SCT050 SCT120=

USA.gov is the U.S. government's official web portal to all federal, state and local government web resources and services.